Rhodanus — PGBC — position and weather

sailwx.info

Track history (hours):
 
Tides and Currents Weather Stations Pressure Air Temp Water Temp Dewpoint Dewpoint Depression Visibility Wind Speed Wind Dir Waves Ship Positions

Rhodanus

Last reported at 2016-Aug-25 21:05 UTC. Time now 2016-Aug-27 02:56 UTC.
Position N 37°26' E 024°16'.

Length 89 m; draft 4.6 m.

Type: Ship. MMSI: 245848000.

Date/timePositionNaut miles runAvg speedWind from/ knotsBaromVisibWave heightAir tempDewpointWater temp
2016-Aug-25 21:05N 37°26' E 024°16'14 9.3
2016-Aug-25 19:33N 37°38' E 024°27'1010.2
2016-Aug-25 18:34N 37°47' E 024°31'1110.6
2016-Aug-25 17:33N 37°57' E 024°35'266 8.6
2016-Aug-24 10:34N 40°51' E 028°56'7 5.8
2016-Aug-24 09:17N 40°49' E 029°05'7 9.3
2016-Aug-24 08:33N 40°46' E 029°13'9 8.6
2016-Aug-24 07:32N 40°45' E 029°25'  
2016-Aug-21 21:32N 40°44' E 029°25'8 8.1
2016-Aug-21 20:33N 40°46' E 029°15'5 5.2
2016-Aug-21 19:33N 40°51' E 029°15'2 1.3
2016-Aug-21 18:12N 40°50' E 029°17'0 0.0
2016-Aug-21 17:30N 40°50' E 029°17'0 0.0
2016-Aug-21 16:18N 40°50' E 029°17'0 0.0
2016-Aug-21 15:30N 40°50' E 029°17'0 0.0
2016-Aug-21 14:30N 40°50' E 029°17'0 0.0
2016-Aug-21 13:30N 40°50' E 029°17'0 0.0
2016-Aug-21 12:24N 40°50' E 029°17'0 0.0
2016-Aug-21 11:30N 40°50' E 029°17'0 0.0
2016-Aug-21 10:30N 40°50' E 029°17'0 0.0
2016-Aug-21 09:30N 40°50' E 029°17'0 0.0
2016-Aug-21 08:30N 40°50' E 029°17'0 0.0
2016-Aug-21 07:30N 40°50' E 029°17'0 0.0
2016-Aug-21 04:24N 40°50' E 029°17'0 0.0
2016-Aug-21 03:30N 40°50' E 029°17'0 0.0
2016-Aug-21 02:30N 40°50' E 029°17'0 0.0
2016-Aug-21 01:24N 40°50' E 029°17'0 0.0
2016-Aug-21 00:18N 40°50' E 029°17'0 0.0
2016-Aug-20 23:30N 40°50' E 029°17'0 0.0
2016-Aug-20 22:30N 40°50' E 029°17'0 0.0
2016-Aug-20 21:30N 40°50' E 029°17'0 0.0
2016-Aug-20 20:30N 40°50' E 029°17'0 0.0
2016-Aug-20 19:30N 40°50' E 029°17'0 0.0
2016-Aug-20 18:30N 40°50' E 029°17'0 0.0
2016-Aug-20 17:30N 40°50' E 029°17'0 0.0
2016-Aug-20 16:30N 40°50' E 029°17'0 0.0
2016-Aug-20 15:30N 40°50' E 029°17'0 0.0
2016-Aug-20 14:28N 40°50' E 029°17'0 0.0
2016-Aug-20 13:28N 40°50' E 029°17'0 0.0
2016-Aug-20 12:28N 40°50' E 029°17'0 0.0
2016-Aug-20 11:22N 40°50' E 029°17'0 0.0
2016-Aug-20 10:28N 40°50' E 029°17'0 0.0
2016-Aug-20 09:28N 40°50' E 029°17'0 0.0
2016-Aug-20 08:22N 40°50' E 029°17'0 0.0
2016-Aug-20 07:22N 40°50' E 029°17'0 0.0
2016-Aug-20 06:22N 40°50' E 029°17'0 0.1
2016-Aug-20 05:28N 40°50' E 029°17'0 0.3
2016-Aug-20 04:22N 40°50' E 029°16'0 0.0
2016-Aug-20 03:28N 40°50' E 029°16'0 0.0
2016-Aug-20 02:22N 40°50' E 029°16'0 0.0
2016-Aug-20 01:28N 40°50' E 029°16'0 0.0
2016-Aug-20 00:28N 40°50' E 029°16'0 0.0
2016-Aug-19 23:22N 40°50' E 029°16'0 0.0
2016-Aug-19 22:22N 40°50' E 029°16'0 0.0
2016-Aug-19 21:28N 40°50' E 029°16'0 0.0
2016-Aug-19 20:22N 40°50' E 029°16'0 0.0
2016-Aug-19 19:30N 40°50' E 029°16'0 0.0
2016-Aug-19 18:30N 40°50' E 029°16'0 0.0
2016-Aug-19 17:30N 40°50' E 029°16'0 0.0
2016-Aug-19 16:30N 40°50' E 029°16'0 0.0
2016-Aug-19 15:24N 40°50' E 029°16'0 0.0
2016-Aug-19 13:30N 40°50' E 029°16'0 0.0
2016-Aug-19 12:24N 40°50' E 029°16'0 0.0
2016-Aug-19 11:30N 40°50' E 029°16'0 0.0
2016-Aug-19 10:30N 40°50' E 029°16'0 0.0
2016-Aug-19 09:24N 40°50' E 029°16'0 0.0
2016-Aug-19 08:24N 40°50' E 029°16'0 0.0
2016-Aug-19 07:30N 40°50' E 029°16'0 0.0
2016-Aug-19 06:24N 40°50' E 029°16'0 0.0
2016-Aug-19 05:30N 40°50' E 029°16'0 0.0
2016-Aug-19 04:30N 40°50' E 029°16'0 0.0
2016-Aug-19 03:30N 40°50' E 029°16'0 0.0
2016-Aug-19 02:30N 40°50' E 029°16'0 0.0
2016-Aug-19 01:18N 40°50' E 029°16'0 0.0
2016-Aug-19 00:24N 40°50' E 029°16'0 0.0
2016-Aug-18 23:30N 40°50' E 029°16'0 0.0
2016-Aug-18 22:18N 40°50' E 029°16'0 0.0
2016-Aug-18 21:24N 40°50' E 029°16'0 0.0
2016-Aug-18 20:30N 40°50' E 029°16'0 0.0
2016-Aug-18 19:24N 40°50' E 029°16'0 0.0
2016-Aug-18 18:18N 40°50' E 029°16'0 0.0
2016-Aug-18 17:24N 40°50' E 029°16'0 0.0
2016-Aug-18 16:30N 40°50' E 029°16'0 0.0
2016-Aug-18 15:30N 40°50' E 029°16'0 0.0
2016-Aug-18 14:24N 40°50' E 029°16'0 0.0
2016-Aug-18 13:12N 40°50' E 029°16'0 0.0
2016-Aug-18 12:30N 40°50' E 029°16'0 0.0
2016-Aug-18 11:30N 40°50' E 029°16'0 0.0
2016-Aug-18 10:30N 40°50' E 029°16'0 0.0
2016-Aug-18 09:30N 40°50' E 029°16'0 0.0
2016-Aug-18 08:30N 40°50' E 029°16'0 0.0
2016-Aug-18 07:30N 40°50' E 029°16'0 0.0
2016-Aug-18 06:30N 40°50' E 029°16'0 0.0
2016-Aug-18 05:30N 40°50' E 029°16'0 0.0
2016-Aug-18 04:30N 40°50' E 029°16'0 0.0
2016-Aug-18 03:30N 40°50' E 029°16'0 0.0
2016-Aug-18 02:30N 40°50' E 029°16'0 0.0
2016-Aug-18 01:30N 40°50' E 029°16'0 0.0
2016-Aug-18 00:30N 40°50' E 029°16'0 0.0
2016-Aug-17 23:30N 40°50' E 029°16'0 0.0
2016-Aug-17 22:30N 40°50' E 029°16'0 0.0
2016-Aug-17 21:30N 40°50' E 029°16'0 0.0
2016-Aug-17 20:24N 40°50' E 029°16'0 0.0
2016-Aug-17 19:06N 40°50' E 029°16'0 0.0
2016-Aug-17 18:30N 40°50' E 029°16'0 0.0
2016-Aug-17 17:30N 40°50' E 029°16'0 0.0
2016-Aug-17 16:30N 40°50' E 029°16'0 0.0
2016-Aug-17 15:30N 40°50' E 029°16'0 0.0
2016-Aug-17 14:30N 40°50' E 029°16'0 0.0
2016-Aug-17 13:30N 40°50' E 029°16'0 0.0
2016-Aug-17 12:30N 40°50' E 029°16'0 0.0
2016-Aug-17 11:24N 40°50' E 029°16'0 0.0
2016-Aug-17 10:30N 40°50' E 029°16'0 0.0
2016-Aug-17 09:24N 40°50' E 029°16'0 0.0
2016-Aug-17 08:30N 40°50' E 029°16'0 0.0
2016-Aug-17 07:30N 40°50' E 029°16'0 0.0
2016-Aug-17 06:12N 40°50' E 029°16'0 0.0
2016-Aug-17 05:30N 40°50' E 029°16'0 0.0
2016-Aug-17 04:30N 40°50' E 029°16'0 0.0
2016-Aug-17 03:30N 40°50' E 029°16'0 0.0
2016-Aug-17 02:30N 40°50' E 029°16'0 0.0
2016-Aug-17 01:30N 40°50' E 029°16'0 0.0
2016-Aug-17 00:30N 40°50' E 029°16'0 0.0
2016-Aug-16 23:24N 40°50' E 029°16'0 0.0
2016-Aug-16 22:24N 40°50' E 029°16'0 0.0
2016-Aug-16 21:12N 40°50' E 029°16'0 0.0
2016-Aug-16 20:30N 40°50' E 029°16'0 0.0
2016-Aug-16 19:24N 40°50' E 029°16'0 0.0
2016-Aug-16 18:30N 40°50' E 029°16'0 0.0
2016-Aug-16 17:30N 40°50' E 029°16'0 0.0
2016-Aug-16 16:24N 40°50' E 029°16'0 0.0
2016-Aug-16 15:24N 40°50' E 029°16'0 0.0
2016-Aug-16 14:30N 40°50' E 029°16'0 0.0
2016-Aug-16 12:06N 40°50' E 029°16'0 0.0
2016-Aug-16 11:18N 40°50' E 029°16'0 0.0
2016-Aug-16 10:30N 40°50' E 029°16'0 0.0
2016-Aug-16 09:30N 40°50' E 029°16'0 0.0
2016-Aug-16 08:30N 40°50' E 029°16'0 0.0
2016-Aug-16 07:24N 40°50' E 029°16'0 0.0
2016-Aug-16 06:12N 40°50' E 029°16'0 0.0
2016-Aug-16 04:30N 40°50' E 029°16'0 0.0
2016-Aug-16 03:12N 40°50' E 029°16'0 0.0
2016-Aug-16 02:30N 40°50' E 029°16'0 0.0
2016-Aug-16 01:30N 40°50' E 029°16'0 0.0
2016-Aug-16 00:12N 40°50' E 029°16'0 0.0
2016-Aug-15 23:30N 40°50' E 029°16'0 0.0
2016-Aug-15 22:30N 40°50' E 029°16'0 0.0
2016-Aug-15 21:06N 40°50' E 029°16'  
Track history (hours):
 
Tides and Currents Weather Stations Pressure Air Temp Water Temp Dewpoint Dewpoint Depression Visibility Wind Speed Wind Dir Waves Ship Positions

Rhodanus

Last reported at 2016-Aug-25 21:05 UTC. Time now 2016-Aug-27 02:56 UTC.
Position N 37°26' E 024°16'.

Length 89 m; draft 4.6 m.

Type: Ship. MMSI: 245848000.

Date/timePositionNaut miles runAvg speedWind from/ knotsBaromVisibWave heightAir tempDewpointWater temp
2016-Aug-25 21:05N 37°26' E 024°16'14 9.3
2016-Aug-25 19:33N 37°38' E 024°27'1010.2
2016-Aug-25 18:34N 37°47' E 024°31'1110.6
2016-Aug-25 17:33N 37°57' E 024°35'266 8.6
2016-Aug-24 10:34N 40°51' E 028°56'7 5.8
2016-Aug-24 09:17N 40°49' E 029°05'7 9.3
2016-Aug-24 08:33N 40°46' E 029°13'9 8.6
2016-Aug-24 07:32N 40°45' E 029°25'  
2016-Aug-21 21:32N 40°44' E 029°25'8 8.1
2016-Aug-21 20:33N 40°46' E 029°15'5 5.2
2016-Aug-21 19:33N 40°51' E 029°15'2 1.3
2016-Aug-21 18:12N 40°50' E 029°17'0 0.0
2016-Aug-21 17:30N 40°50' E 029°17'0 0.0
2016-Aug-21 16:18N 40°50' E 029°17'0 0.0
2016-Aug-21 15:30N 40°50' E 029°17'0 0.0
2016-Aug-21 14:30N 40°50' E 029°17'0 0.0
2016-Aug-21 13:30N 40°50' E 029°17'0 0.0
2016-Aug-21 12:24N 40°50' E 029°17'0 0.0
2016-Aug-21 11:30N 40°50' E 029°17'0 0.0
2016-Aug-21 10:30N 40°50' E 029°17'0 0.0
2016-Aug-21 09:30N 40°50' E 029°17'0 0.0
2016-Aug-21 08:30N 40°50' E 029°17'0 0.0
2016-Aug-21 07:30N 40°50' E 029°17'0 0.0
2016-Aug-21 04:24N 40°50' E 029°17'0 0.0
2016-Aug-21 03:30N 40°50' E 029°17'0 0.0
2016-Aug-21 02:30N 40°50' E 029°17'0 0.0
2016-Aug-21 01:24N 40°50' E 029°17'0 0.0
2016-Aug-21 00:18N 40°50' E 029°17'0 0.0
2016-Aug-20 23:30N 40°50' E 029°17'0 0.0
2016-Aug-20 22:30N 40°50' E 029°17'0 0.0
2016-Aug-20 21:30N 40°50' E 029°17'0 0.0
2016-Aug-20 20:30N 40°50' E 029°17'0 0.0
2016-Aug-20 19:30N 40°50' E 029°17'0 0.0
2016-Aug-20 18:30N 40°50' E 029°17'0 0.0
2016-Aug-20 17:30N 40°50' E 029°17'0 0.0
2016-Aug-20 16:30N 40°50' E 029°17'0 0.0
2016-Aug-20 15:30N 40°50' E 029°17'0 0.0
2016-Aug-20 14:28N 40°50' E 029°17'0 0.0
2016-Aug-20 13:28N 40°50' E 029°17'0 0.0
2016-Aug-20 12:28N 40°50' E 029°17'0 0.0
2016-Aug-20 11:22N 40°50' E 029°17'0 0.0
2016-Aug-20 10:28N 40°50' E 029°17'0 0.0
2016-Aug-20 09:28N 40°50' E 029°17'0 0.0
2016-Aug-20 08:22N 40°50' E 029°17'0 0.0
2016-Aug-20 07:22N 40°50' E 029°17'0 0.0
2016-Aug-20 06:22N 40°50' E 029°17'0 0.1
2016-Aug-20 05:28N 40°50' E 029°17'0 0.3
2016-Aug-20 04:22N 40°50' E 029°16'0 0.0
2016-Aug-20 03:28N 40°50' E 029°16'0 0.0
2016-Aug-20 02:22N 40°50' E 029°16'0 0.0
2016-Aug-20 01:28N 40°50' E 029°16'0 0.0
2016-Aug-20 00:28N 40°50' E 029°16'0 0.0
2016-Aug-19 23:22N 40°50' E 029°16'0 0.0
2016-Aug-19 22:22N 40°50' E 029°16'0 0.0
2016-Aug-19 21:28N 40°50' E 029°16'0 0.0
2016-Aug-19 20:22N 40°50' E 029°16'0 0.0
2016-Aug-19 19:30N 40°50' E 029°16'0 0.0
2016-Aug-19 18:30N 40°50' E 029°16'0 0.0
2016-Aug-19 17:30N 40°50' E 029°16'0 0.0
2016-Aug-19 16:30N 40°50' E 029°16'0 0.0
2016-Aug-19 15:24N 40°50' E 029°16'0 0.0
2016-Aug-19 13:30N 40°50' E 029°16'0 0.0
2016-Aug-19 12:24N 40°50' E 029°16'0 0.0
2016-Aug-19 11:30N 40°50' E 029°16'0 0.0
2016-Aug-19 10:30N 40°50' E 029°16'0 0.0
2016-Aug-19 09:24N 40°50' E 029°16'0 0.0
2016-Aug-19 08:24N 40°50' E 029°16'0 0.0
2016-Aug-19 07:30N 40°50' E 029°16'0 0.0
2016-Aug-19 06:24N 40°50' E 029°16'0 0.0
2016-Aug-19 05:30N 40°50' E 029°16'0 0.0
2016-Aug-19 04:30N 40°50' E 029°16'0 0.0
2016-Aug-19 03:30N 40°50' E 029°16'0 0.0
2016-Aug-19 02:30N 40°50' E 029°16'0 0.0
2016-Aug-19 01:18N 40°50' E 029°16'0 0.0
2016-Aug-19 00:24N 40°50' E 029°16'0 0.0
2016-Aug-18 23:30N 40°50' E 029°16'0 0.0
2016-Aug-18 22:18N 40°50' E 029°16'0 0.0
2016-Aug-18 21:24N 40°50' E 029°16'0 0.0
2016-Aug-18 20:30N 40°50' E 029°16'0 0.0
2016-Aug-18 19:24N 40°50' E 029°16'0 0.0
2016-Aug-18 18:18N 40°50' E 029°16'0 0.0
2016-Aug-18 17:24N 40°50' E 029°16'0 0.0
2016-Aug-18 16:30N 40°50' E 029°16'0 0.0
2016-Aug-18 15:30N 40°50' E 029°16'0 0.0
2016-Aug-18 14:24N 40°50' E 029°16'0 0.0
2016-Aug-18 13:12N 40°50' E 029°16'0 0.0
2016-Aug-18 12:30N 40°50' E 029°16'0 0.0
2016-Aug-18 11:30N 40°50' E 029°16'0 0.0
2016-Aug-18 10:30N 40°50' E 029°16'0 0.0
2016-Aug-18 09:30N 40°50' E 029°16'0 0.0
2016-Aug-18 08:30N 40°50' E 029°16'0 0.0
2016-Aug-18 07:30N 40°50' E 029°16'0 0.0
2016-Aug-18 06:30N 40°50' E 029°16'0 0.0
2016-Aug-18 05:30N 40°50' E 029°16'0 0.0
2016-Aug-18 04:30N 40°50' E 029°16'0 0.0
2016-Aug-18 03:30N 40°50' E 029°16'0 0.0
2016-Aug-18 02:30N 40°50' E 029°16'0 0.0
2016-Aug-18 01:30N 40°50' E 029°16'0 0.0
2016-Aug-18 00:30N 40°50' E 029°16'0 0.0
2016-Aug-17 23:30N 40°50' E 029°16'0 0.0
2016-Aug-17 22:30N 40°50' E 029°16'0 0.0
2016-Aug-17 21:30N 40°50' E 029°16'0 0.0
2016-Aug-17 20:24N 40°50' E 029°16'0 0.0
2016-Aug-17 19:06N 40°50' E 029°16'0 0.0
2016-Aug-17 18:30N 40°50' E 029°16'0 0.0
2016-Aug-17 17:30N 40°50' E 029°16'0 0.0
2016-Aug-17 16:30N 40°50' E 029°16'0 0.0
2016-Aug-17 15:30N 40°50' E 029°16'0 0.0
2016-Aug-17 14:30N 40°50' E 029°16'0 0.0
2016-Aug-17 13:30N 40°50' E 029°16'0 0.0
2016-Aug-17 12:30N 40°50' E 029°16'0 0.0
2016-Aug-17 11:24N 40°50' E 029°16'0 0.0
2016-Aug-17 10:30N 40°50' E 029°16'0 0.0
2016-Aug-17 09:24N 40°50' E 029°16'0 0.0
2016-Aug-17 08:30N 40°50' E 029°16'0 0.0
2016-Aug-17 07:30N 40°50' E 029°16'0 0.0
2016-Aug-17 06:12N 40°50' E 029°16'0 0.0
2016-Aug-17 05:30N 40°50' E 029°16'0 0.0
2016-Aug-17 04:30N 40°50' E 029°16'0 0.0
2016-Aug-17 03:30N 40°50' E 029°16'0 0.0
2016-Aug-17 02:30N 40°50' E 029°16'0 0.0
2016-Aug-17 01:30N 40°50' E 029°16'0 0.0
2016-Aug-17 00:30N 40°50' E 029°16'0 0.0
2016-Aug-16 23:24N 40°50' E 029°16'0 0.0
2016-Aug-16 22:24N 40°50' E 029°16'0 0.0
2016-Aug-16 21:12N 40°50' E 029°16'0 0.0
2016-Aug-16 20:30N 40°50' E 029°16'0 0.0
2016-Aug-16 19:24N 40°50' E 029°16'0 0.0
2016-Aug-16 18:30N 40°50' E 029°16'0 0.0
2016-Aug-16 17:30N 40°50' E 029°16'0 0.0
2016-Aug-16 16:24N 40°50' E 029°16'0 0.0
2016-Aug-16 15:24N 40°50' E 029°16'0 0.0
2016-Aug-16 14:30N 40°50' E 029°16'0 0.0
2016-Aug-16 12:06N 40°50' E 029°16'0 0.0
2016-Aug-16 11:18N 40°50' E 029°16'0 0.0
2016-Aug-16 10:30N 40°50' E 029°16'0 0.0
2016-Aug-16 09:30N 40°50' E 029°16'0 0.0
2016-Aug-16 08:30N 40°50' E 029°16'0 0.0
2016-Aug-16 07:24N 40°50' E 029°16'0 0.0
2016-Aug-16 06:12N 40°50' E 029°16'0 0.0
2016-Aug-16 04:30N 40°50' E 029°16'0 0.0
2016-Aug-16 03:12N 40°50' E 029°16'0 0.0
2016-Aug-16 02:30N 40°50' E 029°16'0 0.0
2016-Aug-16 01:30N 40°50' E 029°16'0 0.0
2016-Aug-16 00:12N 40°50' E 029°16'0 0.0
2016-Aug-15 23:30N 40°50' E 029°16'0 0.0
2016-Aug-15 22:30N 40°50' E 029°16'0 0.0
2016-Aug-15 21:06N 40°50' E 029°16'  

Dump ship's entire track history